sensor_id;sensor_type;location;lat;lon;timestamp;pressure;altitude;pressure_sealevel;temperature;humidity
55456;BME280;63021;52.836;6.376;2023-04-01T00:00:26;99185.66;;;10.12;82.51
55456;BME280;63021;52.836;6.376;2023-04-01T00:02:52;99169.59;;;10.05;82.64
55456;BME280;63021;52.836;6.376;2023-04-01T00:05:17;99183.00;;;10.12;82.77
55456;BME280;63021;52.836;6.376;2023-04-01T00:07:43;99191.97;;;10.11;82.74
55456;BME280;63021;52.836;6.376;2023-04-01T00:10:10;99188.88;;;10.08;82.82
55456;BME280;63021;52.836;6.376;2023-04-01T00:12:37;99187.88;;;10.09;82.89
55456;BME280;63021;52.836;6.376;2023-04-01T00:15:04;99188.88;;;10.08;82.55
55456;BME280;63021;52.836;6.376;2023-04-01T00:17:30;99189.06;;;10.06;82.95
55456;BME280;63021;52.836;6.376;2023-04-01T00:19:56;99188.88;;;10.08;82.77
55456;BME280;63021;52.836;6.376;2023-04-01T00:22:22;99178.31;;;9.99;83.05
55456;BME280;63021;52.836;6.376;2023-04-01T00:24:47;99180.81;;;10.01;83.04
55456;BME280;63021;52.836;6.376;2023-04-01T00:27:13;99185.41;;;10.07;82.65
55456;BME280;63021;52.836;6.376;2023-04-01T00:29:42;99188.22;;;10.05;83.07
55456;BME280;63021;52.836;6.376;2023-04-01T00:32:07;99182.91;;;10.05;82.79
55456;BME280;63021;52.836;6.376;2023-04-01T00:34:33;99188.16;;;9.99;82.74
55456;BME280;63021;52.836;6.376;2023-04-01T00:36:58;99185.75;;;10.04;83.40
55456;BME280;63021;52.836;6.376;2023-04-01T00:39:24;99191.91;;;10.04;83.27
55456;BME280;63021;52.836;6.376;2023-04-01T00:41:49;99192.09;;;10.03;82.93
55456;BME280;63021;52.836;6.376;2023-04-01T00:44:21;99191.06;;;10.04;83.35
55456;BME280;63021;52.836;6.376;2023-04-01T00:46:47;99189.44;;;10.03;83.37
55456;BME280;63021;52.836;6.376;2023-04-01T00:49:14;99198.03;;;10.05;83.04
55456;BME280;63021;52.836;6.376;2023-04-01T00:51:41;99192.72;;;10.05;83.26
55456;BME280;63021;52.836;6.376;2023-04-01T00:54:08;99192.72;;;10.05;83.30
55456;BME280;63021;52.836;6.376;2023-04-01T00:56:37;99196.03;;;10.07;82.89
55456;BME280;63021;52.836;6.376;2023-04-01T00:59:08;99182.28;;;10.03;83.18
55456;BME280;63021;52.836;6.376;2023-04-01T01:01:36;99198.50;;;10.09;83.43
55456;BME280;63021;52.836;6.376;2023-04-01T01:04:01;99190.53;;;10.09;83.51
55456;BME280;63021;52.836;6.376;2023-04-01T01:12:16;99196.84;;;10.08;83.41
55456;BME280;63021;52.836;6.376;2023-04-01T01:20:20;99192.91;;;10.03;82.84
55456;BME280;63021;52.836;6.376;2023-04-01T01:25:46;99194.75;;;10.03;83.21
55456;BME280;63021;52.836;6.376;2023-04-01T01:34:02;99193.28;;;10.00;83.35
55456;BME280;63021;52.836;6.376;2023-04-01T01:36:37;99190.63;;;10.00;83.39
55456;BME280;63021;52.836;6.376;2023-04-01T01:39:05;99193.28;;;10.00;83.02
55456;BME280;63021;52.836;6.376;2023-04-01T01:41:33;99182.34;;;9.95;83.36
55456;BME280;63021;52.836;6.376;2023-04-01T01:44:03;99193.72;;;10.04;83.79
55456;BME280;63021;52.836;6.376;2023-04-01T01:46:30;99193.09;;;10.02;83.88
55456;BME280;63021;52.836;6.376;2023-04-01T01:48:57;99193.09;;;10.02;83.70
55456;BME280;63021;52.836;6.376;2023-04-01T01:51:23;99201.50;;;10.05;83.37
55456;BME280;63021;52.836;6.376;2023-04-01T01:53:49;99197.41;;;10.03;83.36
55456;BME280;63021;52.836;6.376;2023-04-01T01:56:18;99197.03;;;10.06;83.06
55456;BME280;63021;52.836;6.376;2023-04-01T01:58:47;99198.22;;;10.03;83.24
55456;BME280;63021;52.836;6.376;2023-04-01T02:01:17;99200.69;;;10.05;83.45
55456;BME280;63021;52.836;6.376;2023-04-01T02:03:45;99208.66;;;10.05;83.29
55456;BME280;63021;52.836;6.376;2023-04-01T02:06:14;99207.50;;;10.08;83.45
55456;BME280;63021;52.836;6.376;2023-04-01T02:11:18;99212.00;;;10.07;82.74
55456;BME280;63021;52.836;6.376;2023-04-01T02:14:08;99213.63;;;10.08;83.60
55456;BME280;63021;52.836;6.376;2023-04-01T02:16:41;99217.31;;;10.07;83.62
55456;BME280;63021;52.836;6.376;2023-04-01T02:19:09;99214.66;;;10.07;83.27
55456;BME280;63021;52.836;6.376;2023-04-01T02:21:36;99212.81;;;10.08;83.17
55456;BME280;63021;52.836;6.376;2023-04-01T02:24:06;99223.44;;;10.08;82.95
55456;BME280;63021;52.836;6.376;2023-04-01T02:26:34;99220.78;;;10.08;83.01
55456;BME280;63021;52.836;6.376;2023-04-01T02:29:01;99222.44;;;10.09;82.95
55456;BME280;63021;52.836;6.376;2023-04-01T02:31:29;99218.31;;;10.06;83.30
55456;BME280;63021;52.836;6.376;2023-04-01T02:33:56;99227.56;;;10.10;83.24
55456;BME280;63021;52.836;6.376;2023-04-01T02:36:21;99221.41;;;10.10;83.23
55456;BME280;63021;52.836;6.376;2023-04-01T02:38:48;99232.88;;;10.10;82.98
55456;BME280;63021;52.836;6.376;2023-04-01T02:41:15;99229.56;;;10.08;83.50
55456;BME280;63021;52.836;6.376;2023-04-01T02:43:40;99231.03;;;10.11;83.39
55456;BME280;63021;52.836;6.376;2023-04-01T02:46:06;99233.69;;;10.11;83.34
55456;BME280;63021;52.836;6.376;2023-04-01T02:48:31;99233.88;;;10.09;83.42
55456;BME280;63021;52.836;6.376;2023-04-01T02:50:56;99235.06;;;10.06;83.61
55456;BME280;63021;52.836;6.376;2023-04-01T02:53:22;99230.22;;;10.10;83.32
55456;BME280;63021;52.836;6.376;2023-04-01T02:55:47;99223.34;;;10.01;83.42
55456;BME280;63021;52.836;6.376;2023-04-01T02:58:16;99235.72;;;10.09;83.52
55456;BME280;63021;52.836;6.376;2023-04-01T03:00:42;99243.72;;;10.09;83.06
55456;BME280;63021;52.836;6.376;2023-04-01T03:03:08;99244.16;;;10.12;82.88
55456;BME280;63021;52.836;6.376;2023-04-01T03:05:34;99249.47;;;10.12;82.97
55456;BME280;63021;52.836;6.376;2023-04-01T03:07:59;99257.44;;;10.12;83.19
55456;BME280;63021;52.836;6.376;2023-04-01T03:10:25;99248.47;;;10.13;82.59
55456;BME280;63021;52.836;6.376;2023-04-01T03:12:50;99253.78;;;10.13;83.38
55456;BME280;63021;52.836;6.376;2023-04-01T03:15:17;99255.78;;;10.11;83.17
55456;BME280;63021;52.836;6.376;2023-04-01T03:17:43;99253.78;;;10.13;83.06
55456;BME280;63021;52.836;6.376;2023-04-01T03:20:09;99260.75;;;10.14;82.69
55456;BME280;63021;52.836;6.376;2023-04-01T03:22:37;99257.25;;;10.14;82.79
55456;BME280;63021;52.836;6.376;2023-04-01T03:25:03;99262.41;;;10.15;82.94
55456;BME280;63021;52.836;6.376;2023-04-01T03:27:29;99264.44;;;10.13;83.24
55456;BME280;63021;52.836;6.376;2023-04-01T03:29:55;99251.41;;;10.03;82.79
55456;BME280;63021;52.836;6.376;2023-04-01T03:32:20;99274.06;;;10.14;82.65
55456;BME280;63021;52.836;6.376;2023-04-01T03:34:45;99271.56;;;10.13;83.02
55456;BME280;63021;52.836;6.376;2023-04-01T03:37:11;99277.53;;;10.15;83.33
55456;BME280;63021;52.836;6.376;2023-04-01T03:39:36;99279.38;;;10.14;82.78
55456;BME280;63021;52.836;6.376;2023-04-01T03:42:02;99281.19;;;10.14;83.03
55456;BME280;63021;52.836;6.376;2023-04-01T03:44:31;99271.56;;;10.13;82.96
55456;BME280;63021;52.836;6.376;2023-04-01T03:46:57;99283.66;;;10.15;83.27
55456;BME280;63021;52.836;6.376;2023-04-01T03:49:22;99287.00;;;10.17;83.06
55456;BME280;63021;52.836;6.376;2023-04-01T03:51:48;99286.31;;;10.15;82.51
55456;BME280;63021;52.836;6.376;2023-04-01T03:54:13;99284.69;;;10.14;83.13
55456;BME280;63021;52.836;6.376;2023-04-01T03:56:39;99285.69;;;10.13;82.81
55456;BME280;63021;52.836;6.376;2023-04-01T03:59:06;99286.69;;;10.12;82.64
55456;BME280;63021;52.836;6.376;2023-04-01T04:01:32;99299.44;;;10.17;83.09
55456;BME280;63021;52.836;6.376;2023-04-01T04:03:57;99299.44;;;10.17;82.71
55456;BME280;63021;52.836;6.376;2023-04-01T04:06:24;99294.50;;;10.14;83.05
55456;BME280;63021;52.836;6.376;2023-04-01T04:08:50;99298.44;;;10.18;82.43
55456;BME280;63021;52.836;6.376;2023-04-01T04:11:16;99294.50;;;10.14;83.01
55456;BME280;63021;52.836;6.376;2023-04-01T04:13:42;99304.38;;;10.20;83.04
55456;BME280;63021;52.836;6.376;2023-04-01T04:16:09;99306.03;;;10.21;82.92
55456;BME280;63021;52.836;6.376;2023-04-01T04:18:35;99308.72;;;10.21;82.72
55456;BME280;63021;52.836;6.376;2023-04-01T04:21:01;99307.91;;;10.20;82.51
55456;BME280;63021;52.836;6.376;2023-04-01T04:23:26;99296.34;;;10.13;82.78
55456;BME280;63021;52.836;6.376;2023-04-01T04:26:01;99310.72;;;10.19;82.75
55456;BME280;63021;52.836;6.376;2023-04-01T04:28:28;99314.03;;;10.21;82.88
55456;BME280;63021;52.836;6.376;2023-04-01T04:30:54;99318.25;;;10.15;82.85
55456;BME280;63021;52.836;6.376;2023-04-01T04:33:20;99323.00;;;10.20;82.95
55456;BME280;63021;52.836;6.376;2023-04-01T04:35:46;99329.34;;;10.19;82.33
55456;BME280;63021;52.836;6.376;2023-04-01T04:38:11;99327.88;;;10.16;82.19
55456;BME280;63021;52.836;6.376;2023-04-01T04:40:37;99327.88;;;10.16;83.00
55456;BME280;63021;52.836;6.376;2023-04-01T04:43:03;99335.66;;;10.18;82.84
55456;BME280;63021;52.836;6.376;2023-04-01T04:45:29;99345.50;;;10.17;82.79
55456;BME280;63021;52.836;6.376;2023-04-01T04:47:54;99346.31;;;10.18;82.97
55456;BME280;63021;52.836;6.376;2023-04-01T04:50:20;99329.13;;;10.05;82.64
55456;BME280;63021;52.836;6.376;2023-04-01T04:52:45;99345.00;;;10.14;82.55
55456;BME280;63021;52.836;6.376;2023-04-01T04:55:10;99341.91;;;10.10;82.92
55456;BME280;63021;52.836;6.376;2023-04-01T04:57:36;99360.59;;;10.17;82.57
55456;BME280;63021;52.836;6.376;2023-04-01T05:00:01;99357.31;;;10.15;82.69
55456;BME280;63021;52.836;6.376;2023-04-01T05:02:27;99365.09;;;10.16;82.71
55456;BME280;63021;52.836;6.376;2023-04-01T05:04:52;99364.28;;;10.16;82.68
55456;BME280;63021;52.836;6.376;2023-04-01T05:07:18;99350.88;;;10.09;83.07
55456;BME280;63021;52.836;6.376;2023-04-01T05:09:43;99362.63;;;10.15;83.16
55456;BME280;63021;52.836;6.376;2023-04-01T05:12:11;99374.06;;;10.15;82.70
55456;BME280;63021;52.836;6.376;2023-04-01T05:14:38;99372.44;;;10.14;83.11
55456;BME280;63021;52.836;6.376;2023-04-01T05:17:04;99370.13;;;10.11;83.27
55456;BME280;63021;52.836;6.376;2023-04-01T05:19:29;99381.44;;;10.13;82.95
55456;BME280;63021;52.836;6.376;2023-04-01T05:21:55;99379.94;;;10.11;82.67
55456;BME280;63021;52.836;6.376;2023-04-01T05:24:20;99386.75;;;10.13;82.94
55456;BME280;63021;52.836;6.376;2023-04-01T05:26:45;99390.41;;;10.12;83.42
55456;BME280;63021;52.836;6.376;2023-04-01T05:29:11;99396.53;;;10.13;83.08
55456;BME280;63021;52.836;6.376;2023-04-01T05:31:36;99394.72;;;10.13;83.19
55456;BME280;63021;52.836;6.376;2023-04-01T05:34:02;99396.38;;;10.14;83.66
55456;BME280;63021;52.836;6.376;2023-04-01T05:36:27;99392.44;;;10.10;83.51
55456;BME280;63021;52.836;6.376;2023-04-01T05:38:55;99408.00;;;10.13;83.77
55456;BME280;63021;52.836;6.376;2023-04-01T05:41:21;99397.06;;;10.08;83.69
55456;BME280;63021;52.836;6.376;2023-04-01T05:43:47;99403.88;;;10.11;83.18
55456;BME280;63021;52.836;6.376;2023-04-01T05:46:12;99405.72;;;10.10;83.46
55456;BME280;63021;52.836;6.376;2023-04-01T05:48:38;99414.50;;;10.11;82.89
55456;BME280;63021;52.836;6.376;2023-04-01T05:51:04;99409.75;;;10.06;83.45
55456;BME280;63021;52.836;6.376;2023-04-01T05:53:29;99417.34;;;10.09;83.51
55456;BME280;63021;52.836;6.376;2023-04-01T05:55:55;99419.81;;;10.11;83.08
55456;BME280;63021;52.836;6.376;2023-04-01T05:58:20;99409.25;;;10.02;83.49
55456;BME280;63021;52.836;6.376;2023-04-01T06:00:46;99428.00;;;10.09;83.49
55456;BME280;63021;52.836;6.376;2023-04-01T06:03:11;99425.69;;;10.06;83.42
55456;BME280;63021;52.836;6.376;2023-04-01T06:05:41;99438.44;;;10.11;84.25
55456;BME280;63021;52.836;6.376;2023-04-01T06:08:13;99435.78;;;10.11;83.41
55456;BME280;63021;52.836;6.376;2023-04-01T06:11:19;99439.09;;;10.13;84.20
55456;BME280;63021;52.836;6.376;2023-04-01T06:14:03;99449.72;;;10.13;83.68
55456;BME280;63021;52.836;6.376;2023-04-01T06:22:00;99457.53;;;10.14;83.89
55456;BME280;63021;52.836;6.376;2023-04-01T06:30:24;99471.94;;;10.20;84.65
55456;BME280;63021;52.836;6.376;2023-04-01T06:35:38;99476.91;;;10.23;84.51
55456;BME280;63021;52.836;6.376;2023-04-01T06:46:47;99488.69;;;10.29;84.74
55456;BME280;63021;52.836;6.376;2023-04-01T06:49:34;99496.28;;;10.32;84.00
55456;BME280;63021;52.836;6.376;2023-04-01T06:57:54;99512.94;;;10.34;84.47
55456;BME280;63021;52.836;6.376;2023-04-01T07:00:32;99508.28;;;10.36;84.03
55456;BME280;63021;52.836;6.376;2023-04-01T07:05:31;99514.88;;;10.40;84.41
55456;BME280;63021;52.836;6.376;2023-04-01T07:07:59;99514.22;;;10.38;83.85
55456;BME280;63021;52.836;6.376;2023-04-01T07:10:44;99528.34;;;10.38;84.35
55456;BME280;63021;52.836;6.376;2023-04-01T07:13:20;99531.19;;;10.37;84.72
55456;BME280;63021;52.836;6.376;2023-04-01T07:16:16;99530.00;;;10.39;84.64
55456;BME280;63021;52.836;6.376;2023-04-01T07:19:05;99536.16;;;10.40;84.65
55456;BME280;63021;52.836;6.376;2023-04-01T07:21:43;99542.78;;;10.44;84.73
55456;BME280;63021;52.836;6.376;2023-04-01T07:24:16;99549.38;;;10.48;84.41
55456;BME280;63021;52.836;6.376;2023-04-01T07:26:43;99548.41;;;10.49;84.70
55456;BME280;63021;52.836;6.376;2023-04-01T07:29:13;99560.53;;;10.52;84.71
55456;BME280;63021;52.836;6.376;2023-04-01T07:34:50;99566.31;;;10.55;84.28
55456;BME280;63021;52.836;6.376;2023-04-01T07:37:25;99565.13;;;10.58;84.72
55456;BME280;63021;52.836;6.376;2023-04-01T07:48:33;99580.66;;;10.69;84.52
55456;BME280;63021;52.836;6.376;2023-04-01T07:51:11;99584.50;;;10.67;84.24
55456;BME280;63021;52.836;6.376;2023-04-01T07:53:48;99591.31;;;10.69;84.20
55456;BME280;63021;52.836;6.376;2023-04-01T07:56:19;99578.91;;;10.62;84.48
55456;BME280;63021;52.836;6.376;2023-04-01T08:01:40;99607.09;;;10.71;84.48
55456;BME280;63021;52.836;6.376;2023-04-01T08:07:20;99611.63;;;10.70;84.28
55456;BME280;63021;52.836;6.376;2023-04-01T08:10:00;99612.59;;;10.69;84.78
55456;BME280;63021;52.836;6.376;2023-04-01T08:23:00;99642.03;;;10.76;84.48
55456;BME280;63021;52.836;6.376;2023-04-01T08:25:30;99638.81;;;10.81;84.54
55456;BME280;63021;52.836;6.376;2023-04-01T08:30:47;99652.41;;;10.86;84.54
55456;BME280;63021;52.836;6.376;2023-04-01T08:33:24;99650.22;;;10.89;84.81
55456;BME280;63021;52.836;6.376;2023-04-01T08:35:56;99648.19;;;10.91;84.58
55456;BME280;63021;52.836;6.376;2023-04-01T08:38:32;99649.22;;;10.90;84.65
55456;BME280;63021;52.836;6.376;2023-04-01T08:43:54;99658.97;;;10.98;84.19
55456;BME280;63021;52.836;6.376;2023-04-01T08:50:08;99671.22;;;11.07;84.45
55456;BME280;63021;52.836;6.376;2023-04-01T08:53:03;99668.53;;;11.07;84.00
55456;BME280;63021;52.836;6.376;2023-04-01T08:55:38;99673.88;;;11.07;84.08
55456;BME280;63021;52.836;6.376;2023-04-01T09:01:14;99694.72;;;11.04;83.55
55456;BME280;63021;52.836;6.376;2023-04-01T09:09:54;99696.66;;;11.10;83.70
55456;BME280;63021;52.836;6.376;2023-04-01T09:12:38;99701.56;;;11.21;84.41
55456;BME280;63021;52.836;6.376;2023-04-01T09:31:04;99726.19;;;11.61;83.52
55456;BME280;63021;52.836;6.376;2023-04-01T09:36:46;99741.81;;;11.65;83.48
55456;BME280;63021;52.836;6.376;2023-04-01T09:44:53;99749.81;;;11.65;82.51
55456;BME280;63021;52.836;6.376;2023-04-01T10:04:01;99772.84;;;11.81;82.21
55456;BME280;63021;52.836;6.376;2023-04-01T10:06:57;99780.00;;;11.80;82.17
55456;BME280;63021;52.836;6.376;2023-04-01T10:23:49;99809.16;;;11.82;81.07
55456;BME280;63021;52.836;6.376;2023-04-01T10:46:04;99836.00;;;11.80;80.78
55456;BME280;63021;52.836;6.376;2023-04-01T10:57:28;99846.56;;;11.73;80.77
55456;BME280;63021;52.836;6.376;2023-04-01T11:33:03;99910.75;;;11.09;80.64
55456;BME280;63021;52.836;6.376;2023-04-01T11:49:47;99941.84;;;10.61;80.21
55456;BME280;63021;52.836;6.376;2023-04-01T11:52:25;99954.34;;;10.52;80.98
55456;BME280;63021;52.836;6.376;2023-04-01T11:55:02;99955.00;;;10.46;81.21
55456;BME280;63021;52.836;6.376;2023-04-01T12:03:15;99962.16;;;10.29;81.68
55456;BME280;63021;52.836;6.376;2023-04-01T12:13:48;99982.09;;;10.16;82.10
55456;BME280;63021;52.836;6.376;2023-04-01T12:25:22;100019.66;;;10.13;82.29
55456;BME280;63021;52.836;6.376;2023-04-01T12:28:21;100022.50;;;10.12;82.98
55456;BME280;63021;52.836;6.376;2023-04-01T12:48:01;100046.56;;;10.02;82.54
55456;BME280;63021;52.836;6.376;2023-04-01T12:51:04;100054.22;;;10.05;82.36
55456;BME280;63021;52.836;6.376;2023-04-01T13:02:19;100069.47;;;9.95;82.58
55456;BME280;63021;52.836;6.376;2023-04-01T13:07:17;100083.44;;;9.97;83.08
55456;BME280;63021;52.836;6.376;2023-04-01T13:18:01;100105.03;;;9.94;82.47
55456;BME280;63021;52.836;6.376;2023-04-01T13:29:04;100128.47;;;9.90;82.33
55456;BME280;63021;52.836;6.376;2023-04-01T13:31:59;100122.13;;;9.91;82.30
55456;BME280;63021;52.836;6.376;2023-04-01T13:42:53;100145.72;;;9.86;82.71
55456;BME280;63021;52.836;6.376;2023-04-01T13:45:49;100151.69;;;9.80;81.86
55456;BME280;63021;52.836;6.376;2023-04-01T13:53:55;100158.91;;;9.69;82.35
55456;BME280;63021;52.836;6.376;2023-04-01T14:00:10;100173.22;;;9.68;82.21
55456;BME280;63021;52.836;6.376;2023-04-01T14:11:45;100200.94;;;9.66;81.97
55456;BME280;63021;52.836;6.376;2023-04-01T14:17:13;100212.03;;;9.61;81.46
55456;BME280;63021;52.836;6.376;2023-04-01T14:22:56;100219.97;;;9.53;81.41
55456;BME280;63021;52.836;6.376;2023-04-01T14:50:44;100275.63;;;9.18;81.29
55456;BME280;63021;52.836;6.376;2023-04-01T14:55:57;100282.53;;;9.11;81.49
55456;BME280;63021;52.836;6.376;2023-04-01T14:58:26;100291.78;;;9.07;81.71
55456;BME280;63021;52.836;6.376;2023-04-01T15:12:11;100315.63;;;8.89;81.30
55456;BME280;63021;52.836;6.376;2023-04-01T15:14:45;100323.09;;;8.86;81.39
55456;BME280;63021;52.836;6.376;2023-04-01T15:22:37;100348.09;;;8.83;81.61
55456;BME280;63021;52.836;6.376;2023-04-01T15:28:32;100355.22;;;8.82;81.75
55456;BME280;63021;52.836;6.376;2023-04-01T15:31:03;100366.97;;;8.80;81.62
55456;BME280;63021;52.836;6.376;2023-04-01T15:33:45;100366.41;;;8.76;82.19
55456;BME280;63021;52.836;6.376;2023-04-01T15:36:30;100375.69;;;8.72;81.86
55456;BME280;63021;52.836;6.376;2023-04-01T15:39:13;100382.25;;;8.68;81.17
55456;BME280;63021;52.836;6.376;2023-04-01T15:42:04;100382.72;;;8.63;81.62
55456;BME280;63021;52.836;6.376;2023-04-01T15:45:16;100387.16;;;8.63;82.13
55456;BME280;63021;52.836;6.376;2023-04-01T15:48:35;100403.06;;;8.63;82.13
55456;BME280;63021;52.836;6.376;2023-04-01T15:54:40;100414.53;;;8.63;81.44
55456;BME280;63021;52.836;6.376;2023-04-01T15:57:27;100418.16;;;8.62;81.49
55456;BME280;63021;52.836;6.376;2023-04-01T16:00:06;100416.63;;;8.60;81.43
55456;BME280;63021;52.836;6.376;2023-04-01T16:10:37;100443.75;;;8.54;80.72
55456;BME280;63021;52.836;6.376;2023-04-01T16:16:19;100460.66;;;8.53;81.73
55456;BME280;63021;52.836;6.376;2023-04-01T16:19:29;100471.41;;;8.51;81.43
55456;BME280;63021;52.836;6.376;2023-04-01T16:22:13;100467.50;;;8.45;81.50
55456;BME280;63021;52.836;6.376;2023-04-01T16:24:53;100480.91;;;8.54;81.02
55456;BME280;63021;52.836;6.376;2023-04-01T16:30:03;100495.81;;;8.55;80.43
55456;BME280;63021;52.836;6.376;2023-04-01T16:32:51;100499.63;;;8.52;80.93
55456;BME280;63021;52.836;6.376;2023-04-01T16:35:46;100506.03;;;8.49;80.92
55456;BME280;63021;52.836;6.376;2023-04-01T16:41:14;100521.63;;;8.43;80.59
55456;BME280;63021;52.836;6.376;2023-04-01T16:43:51;100519.56;;;8.37;80.86
55456;BME280;63021;52.836;6.376;2023-04-01T16:46:39;100530.88;;;8.29;80.84
55456;BME280;63021;52.836;6.376;2023-04-01T16:54:50;100540.50;;;8.10;80.84
55456;BME280;63021;52.836;6.376;2023-04-01T16:57:42;100546.06;;;8.07;80.61
55456;BME280;63021;52.836;6.376;2023-04-01T17:00:28;100558.19;;;8.00;81.14
55456;BME280;63021;52.836;6.376;2023-04-01T17:03:14;100564.91;;;7.94;81.16
55456;BME280;63021;52.836;6.376;2023-04-01T17:05:58;100577.56;;;7.91;80.97
55456;BME280;63021;52.836;6.376;2023-04-01T17:08:36;100582.44;;;7.86;80.70
55456;BME280;63021;52.836;6.376;2023-04-01T17:13:35;100593.72;;;7.78;80.93
55456;BME280;63021;52.836;6.376;2023-04-01T17:21:22;100621.53;;;7.62;80.54
55456;BME280;63021;52.836;6.376;2023-04-01T17:23:52;100620.25;;;7.57;80.50
55456;BME280;63021;52.836;6.376;2023-04-01T17:28:56;100634.38;;;7.57;80.57
55456;BME280;63021;52.836;6.376;2023-04-01T17:37:07;100656.06;;;7.51;80.13
55456;BME280;63021;52.836;6.376;2023-04-01T17:42:39;100658.84;;;7.50;81.19
55456;BME280;63021;52.836;6.376;2023-04-01T17:51:17;100689.53;;;7.31;80.54
55456;BME280;63021;52.836;6.376;2023-04-01T18:23:58;100785.31;;;6.83;80.79
55456;BME280;63021;52.836;6.376;2023-04-01T18:26:34;100790.84;;;6.80;81.03
55456;BME280;63021;52.836;6.376;2023-04-01T18:29:12;100792.63;;;6.79;80.71
55456;BME280;63021;52.836;6.376;2023-04-01T18:31:46;100798.91;;;6.78;80.82
55456;BME280;63021;52.836;6.376;2023-04-01T18:37:34;100806.94;;;6.76;81.09
55456;BME280;63021;52.836;6.376;2023-04-01T18:40:24;100816.81;;;6.74;81.13
55456;BME280;63021;52.836;6.376;2023-04-01T18:45:58;100837.38;;;6.71;80.92
55456;BME280;63021;52.836;6.376;2023-04-01T18:51:13;100856.25;;;6.66;80.92
55456;BME280;63021;52.836;6.376;2023-04-01T18:53:44;100859.91;;;6.65;80.76
55456;BME280;63021;52.836;6.376;2023-04-01T18:56:22;100861.81;;;6.63;81.26
55456;BME280;63021;52.836;6.376;2023-04-01T18:59:01;100869.16;;;6.59;80.51
55456;BME280;63021;52.836;6.376;2023-04-01T19:04:42;100885.97;;;6.58;80.39
55456;BME280;63021;52.836;6.376;2023-04-01T19:10:37;100890.66;;;6.55;80.96
55456;BME280;63021;52.836;6.376;2023-04-01T19:13:18;100909.28;;;6.53;80.91
55456;BME280;63021;52.836;6.376;2023-04-01T19:16:07;100909.53;;;6.50;80.12
55456;BME280;63021;52.836;6.376;2023-04-01T19:26:35;100936.34;;;6.46;81.20
55456;BME280;63021;52.836;6.376;2023-04-01T19:34:52;100953.41;;;6.41;80.74
55456;BME280;63021;52.836;6.376;2023-04-01T19:37:39;100953.88;;;6.35;80.93
55456;BME280;63021;52.836;6.376;2023-04-01T19:46:19;100972.81;;;6.29;80.46
55456;BME280;63021;52.836;6.376;2023-04-01T19:57:38;100998.78;;;6.24;79.87
55456;BME280;63021;52.836;6.376;2023-04-01T20:19:43;101048.44;;;6.07;79.86
55456;BME280;63021;52.836;6.376;2023-04-01T20:22:24;101065.03;;;6.10;80.26
55456;BME280;63021;52.836;6.376;2023-04-01T20:24:57;101067.81;;;6.08;80.00
55456;BME280;63021;52.836;6.376;2023-04-01T20:27:26;101073.09;;;6.08;80.11
55456;BME280;63021;52.836;6.376;2023-04-01T20:36:16;101087.06;;;5.97;79.60
55456;BME280;63021;52.836;6.376;2023-04-01T20:44:26;101106.94;;;5.90;80.47
55456;BME280;63021;52.836;6.376;2023-04-01T20:47:13;101112.09;;;5.92;80.60
55456;BME280;63021;52.836;6.376;2023-04-01T20:54:47;101123.75;;;5.89;79.49
55456;BME280;63021;52.836;6.376;2023-04-01T21:05:46;101162.56;;;5.76;79.84
55456;BME280;63021;52.836;6.376;2023-04-01T21:08:21;101146.19;;;5.70;79.37
55456;BME280;63021;52.836;6.376;2023-04-01T21:11:00;101162.25;;;5.67;79.55
55456;BME280;63021;52.836;6.376;2023-04-01T21:13:36;101163.22;;;5.66;80.11
55456;BME280;63021;52.836;6.376;2023-04-01T21:23:50;101184.66;;;5.62;79.79
55456;BME280;63021;52.836;6.376;2023-04-01T21:26:41;101191.72;;;5.61;79.13
55456;BME280;63021;52.836;6.376;2023-04-01T21:34:57;101212.13;;;5.59;79.67
55456;BME280;63021;52.836;6.376;2023-04-01T22:13:54;101292.03;;;5.35;79.17
55456;BME280;63021;52.836;6.376;2023-04-01T22:16:36;101295.84;;;5.31;78.66
55456;BME280;63021;52.836;6.376;2023-04-01T22:19:29;101308.09;;;5.32;79.28
55456;BME280;63021;52.836;6.376;2023-04-01T22:27:46;101310.22;;;5.27;78.44
55456;BME280;63021;52.836;6.376;2023-04-01T22:32:49;101320.94;;;5.24;78.92
55456;BME280;63021;52.836;6.376;2023-04-01T22:38:09;101329.72;;;5.25;78.58
55456;BME280;63021;52.836;6.376;2023-04-01T22:43:42;101330.97;;;5.19;78.18
55456;BME280;63021;52.836;6.376;2023-04-01T22:48:46;101346.81;;;5.19;78.40
55456;BME280;63021;52.836;6.376;2023-04-01T22:56:21;101355.41;;;5.08;78.96
55456;BME280;63021;52.836;6.376;2023-04-01T22:59:04;101354.47;;;5.09;78.10
55456;BME280;63021;52.836;6.376;2023-04-01T23:01:35;101364.94;;;5.11;78.29
55456;BME280;63021;52.836;6.376;2023-04-01T23:04:05;101366.25;;;5.03;79.11
55456;BME280;63021;52.836;6.376;2023-04-01T23:06:35;101378.53;;;5.05;77.98
55456;BME280;63021;52.836;6.376;2023-04-01T23:09:07;101381.38;;;5.01;78.27
55456;BME280;63021;52.836;6.376;2023-04-01T23:14:30;101380.50;;;5.01;78.73
55456;BME280;63021;52.836;6.376;2023-04-01T23:19:49;101397.47;;;4.97;78.55
55456;BME280;63021;52.836;6.376;2023-04-01T23:25:12;101398.69;;;4.91;78.08
55456;BME280;63021;52.836;6.376;2023-04-01T23:33:21;101416.81;;;4.83;78.53
55456;BME280;63021;52.836;6.376;2023-04-01T23:35:49;101422.28;;;4.80;77.93
55456;BME280;63021;52.836;6.376;2023-04-01T23:38:16;101428.59;;;4.77;77.56
55456;BME280;63021;52.836;6.376;2023-04-01T23:40:42;101436.50;;;4.77;77.18
55456;BME280;63021;52.836;6.376;2023-04-01T23:43:28;101440.81;;;4.78;77.74
55456;BME280;63021;52.836;6.376;2023-04-01T23:45:56;101444.50;;;4.76;77.78
55456;BME280;63021;52.836;6.376;2023-04-01T23:48:31;101454.09;;;4.77;77.96
55456;BME280;63021;52.836;6.376;2023-04-01T23:50:57;101456.84;;;4.75;77.44
55456;BME280;63021;52.836;6.376;2023-04-01T23:53:25;101462.88;;;4.77;77.76
55456;BME280;63021;52.836;6.376;2023-04-01T23:55:52;101469.28;;;4.73;76.67
55456;BME280;63021;52.836;6.376;2023-04-01T23:58:27;101469.56;;;4.68;77.61
